Time;durP1;ratioP1;P1;durP2;ratioP2;P2;SDS_P1;SDS_P2;PMS_P1;PMS_P2;Temp;Humidity;BMP_temperature;BMP_pressure;BME280_temperature;BME280_humidity;BME280_pressure;Samples;Min_cycle;Max_cycle;Signal;HPM_P1;HPM_P2
2022/06/15 00:01:26;;;;;;;4.00;2.40;;;;;;;12.80;66.84;100785.41;106074;1274;26562;-70
2022/06/15 00:03:54;;;;;;;6.10;2.30;;;;;;;12.76;66.85;100780.85;106028;1274;22534;-74
2022/06/15 00:06:24;;;;;;;4.10;1.90;;;;;;;12.69;66.91;100781.48;105987;1274;24392;-72
2022/06/15 00:08:55;;;;;;;4.30;2.10;;;;;;;12.62;67.09;100782.27;105962;1277;26699;-71
2022/06/15 00:11:26;;;;;;;3.90;2.10;;;;;;;12.60;67.25;100781.75;106057;1274;22541;-69
2022/06/15 00:13:54;;;;;;;4.70;2.10;;;;;;;12.57;67.35;100782.48;106052;1274;25249;-70
2022/06/15 00:16:22;;;;;;;4.10;2.40;;;;;;;12.53;67.54;100786.42;106105;1274;24303;-81
2022/06/15 00:18:49;;;;;;;5.90;2.10;;;;;;;12.52;67.69;100784.84;105798;1274;24276;-72
2022/06/15 00:21:17;;;;;;;5.60;2.20;;;;;;;12.52;67.73;100783.78;105979;1274;24427;-67
2022/06/15 00:23:45;;;;;;;4.60;2.70;;;;;;;12.50;67.79;100783.09;105818;1274;22556;-72
2022/06/15 00:26:14;;;;;;;4.50;2.00;;;;;;;12.49;67.91;100783.48;105851;1274;22602;-72
2022/06/15 00:28:42;;;;;;;6.50;2.20;;;;;;;12.43;67.94;100781.77;106212;1275;23006;-74
2022/06/15 00:31:09;;;;;;;4.70;2.30;;;;;;;12.41;68.06;100779.50;106315;1275;22648;-70
2022/06/15 00:33:37;;;;;;;7.20;2.30;;;;;;;12.43;68.17;100777.53;106142;1274;22760;-70
2022/06/15 00:36:10;;;;;;;3.10;1.90;;;;;;;12.45;68.23;100774.67;105858;1275;25352;-73
2022/06/15 00:38:42;;;;;;;3.60;1.80;;;;;;;12.43;68.21;100773.10;106017;1277;24259;-73
2022/06/15 00:41:14;;;;;;;3.60;2.40;;;;;;;12.42;68.19;100772.59;105989;1275;22590;-74
2022/06/15 00:43:48;;;;;;;4.50;2.30;;;;;;;12.47;68.19;100775.36;106037;1275;22534;-73
2022/06/15 00:46:37;;;;;;;2.60;1.90;;;;;;;12.44;68.19;100776.63;105991;1275;22553;-73
2022/06/15 00:49:29;;;;;;;3.60;1.80;;;;;;;12.46;68.19;100776.08;106218;1274;22616;-73
2022/06/15 00:52:08;;;;;;;4.90;2.20;;;;;;;12.43;68.18;100776.65;105674;1277;23579;-70
2022/06/15 00:54:35;;;;;;;7.20;2.10;;;;;;;12.42;68.33;100775.59;106024;1275;23052;-73
2022/06/15 00:57:03;;;;;;;6.80;2.30;;;;;;;12.44;68.39;100781.39;105984;1275;24301;-72
2022/06/15 00:59:33;;;;;;;4.80;2.20;;;;;;;12.45;68.42;100782.09;106170;1274;24412;-70
2022/06/15 01:02:00;;;;;;;3.70;2.20;;;;;;;12.40;68.40;100780.02;106011;1274;22557;-70
2022/06/15 01:04:38;;;;;;;3.60;1.90;;;;;;;12.40;68.60;100775.09;105940;1275;22614;-71
2022/06/15 01:07:45;;;;;;;3.10;1.80;;;;;;;12.32;68.50;100773.04;105879;1275;24035;-69
2022/06/15 01:10:30;;;;;;;4.80;2.00;;;;;;;12.28;68.71;100775.73;105969;1274;22523;-66
2022/06/15 01:13:12;;;;;;;6.20;2.40;;;;;;;12.30;68.92;100778.89;105851;1274;22554;-70
2022/06/15 01:16:16;;;;;;;5.90;2.90;;;;;;;12.29;68.93;100779.08;106018;1275;22615;-72
2022/06/15 01:19:10;;;;;;;4.10;2.40;;;;;;;12.27;69.07;100779.80;106001;1274;22583;-71
2022/06/15 01:21:50;;;;;;;4.00;2.50;;;;;;;12.27;69.05;100781.04;105852;1274;25356;-73
2022/06/15 01:24:38;;;;;;;5.80;2.60;;;;;;;12.26;69.23;100780.88;105957;1275;22573;-71
2022/06/15 01:27:46;;;;;;;5.50;2.20;;;;;;;12.27;69.21;100780.52;106043;1274;22546;-72
2022/06/15 01:30:21;;;;;;;4.50;2.40;;;;;;;12.22;69.33;100782.86;105865;1274;25255;-71
2022/06/15 01:33:01;;;;;;;6.90;2.50;;;;;;;12.21;69.40;100780.74;105892;1277;22531;-70
2022/06/15 01:36:04;;;;;;;5.70;2.70;;;;;;;12.17;69.48;100785.90;105943;1274;22733;-71
2022/06/15 01:38:52;;;;;;;5.20;2.50;;;;;;;12.10;69.74;100780.84;105676;1274;24227;-72
2022/06/15 01:41:52;;;;;;;7.00;2.20;;;;;;;12.10;69.73;100781.03;105938;1274;22546;-72
2022/06/15 01:44:36;;;;;;;5.90;2.60;;;;;;;12.07;69.78;100783.32;105981;1274;22553;-72
2022/06/15 01:47:14;;;;;;;3.30;2.30;;;;;;;12.00;69.97;100782.68;105969;1275;25258;-70
2022/06/15 01:50:05;;;;;;;3.70;2.50;;;;;;;11.99;70.11;100781.45;105766;1277;25254;-73
2022/06/15 01:52:56;;;;;;;5.50;2.50;;;;;;;11.98;70.14;100784.11;106003;1274;22657;-73
2022/06/15 01:55:29;;;;;;;8.20;3.10;;;;;;;11.96;70.34;100786.59;105977;1275;22538;-74
2022/06/15 01:58:00;;;;;;;5.50;2.80;;;;;;;11.92;70.43;100783.97;106021;1275;23011;-74
2022/06/15 02:00:27;;;;;;;5.10;2.50;;;;;;;11.95;70.64;100788.36;105964;1274;25413;-74
2022/06/15 02:03:09;;;;;;;6.70;2.90;;;;;;;11.97;70.59;100786.58;105918;1274;22924;-75
2022/06/15 02:06:04;;;;;;;5.00;2.60;;;;;;;11.98;70.79;100786.74;105902;1274;22528;-72
2022/06/15 02:08:50;;;;;;;4.20;2.50;;;;;;;12.01;70.69;100785.66;105956;1274;22550;-74
2022/06/15 02:11:29;;;;;;;5.60;3.10;;;;;;;11.99;70.83;100784.44;105948;1275;22532;-70
2022/06/15 02:14:03;;;;;;;4.10;2.90;;;;;;;11.95;70.80;100782.89;105773;1275;23971;-72
2022/06/15 02:16:42;;;;;;;4.80;3.30;;;;;;;11.93;70.93;100783.79;105635;1274;25304;-70
2022/06/15 02:19:15;;;;;;;6.20;2.70;;;;;;;11.87;71.05;100783.83;105800;1274;22563;-70
2022/06/15 02:21:46;;;;;;;9.00;2.90;;;;;;;11.86;71.19;100784.73;105811;1274;25421;-70
2022/06/15 02:24:17;;;;;;;8.10;2.60;;;;;;;11.87;71.27;100783.30;105802;1276;22554;-71
2022/06/15 02:26:45;;;;;;;7.20;3.20;;;;;;;11.87;71.39;100785.42;105666;1275;22853;-71
2022/06/15 02:29:22;;;;;;;5.50;2.60;;;;;;;11.85;71.31;100787.20;105887;1274;22551;-69
2022/06/15 02:31:55;;;;;;;8.00;3.20;;;;;;;11.79;71.43;100789.19;105862;1274;22850;-72
2022/06/15 02:34:24;;;;;;;3.80;2.70;;;;;;;11.77;71.59;100789.21;105932;1274;23985;-72
2022/06/15 02:36:51;;;;;;;4.60;2.70;;;;;;;11.77;71.70;100791.50;106090;1274;26486;-75
2022/06/15 02:39:20;;;;;;;6.50;3.20;;;;;;;11.73;71.77;100793.30;105946;1275;25357;-72
2022/06/15 02:41:57;;;;;;;5.10;2.80;;;;;;;11.75;71.85;100797.86;106020;1274;25817;-73
2022/06/15 02:44:26;;;;;;;7.10;3.50;;;;;;;11.78;71.87;100799.96;105596;1279;24721;-73
2022/06/15 02:46:54;;;;;;;6.80;3.30;;;;;;;11.78;71.80;100801.92;105445;1279;25365;-70
2022/06/15 02:49:22;;;;;;;5.90;3.40;;;;;;;11.74;71.81;100802.28;105677;1279;24826;-73
2022/06/15 02:51:55;;;;;;;6.20;2.90;;;;;;;11.73;71.91;100805.81;105718;1280;24316;-72
2022/06/15 02:54:38;;;;;;;4.60;2.80;;;;;;;11.73;71.96;100801.23;105869;1279;25308;-75
2022/06/15 02:57:11;;;;;;;7.80;3.20;;;;;;;11.74;71.87;100804.58;105694;1279;25314;-73
2022/06/15 02:59:40;;;;;;;7.20;3.70;;;;;;;11.73;72.10;100803.17;105844;1279;25357;-72
2022/06/15 03:02:08;;;;;;;5.90;2.80;;;;;;;11.79;72.14;100801.54;105747;1274;25934;-73
2022/06/15 03:04:38;;;;;;;5.60;3.20;;;;;;;11.81;71.99;100803.64;106150;1274;25471;-72
2022/06/15 03:07:05;;;;;;;6.10;3.10;;;;;;;11.81;71.94;100801.71;105842;1273;22479;-75
2022/06/15 03:09:32;;;;;;;7.30;3.30;;;;;;;11.82;71.95;100806.45;105821;1274;24370;-79
2022/06/15 03:12:08;;;;;;;8.80;2.90;;;;;;;11.82;71.82;100808.04;105542;1279;22582;-73
2022/06/15 03:14:36;;;;;;;7.00;2.90;;;;;;;11.81;71.85;100810.70;105510;1279;26622;-76
2022/06/15 03:17:05;;;;;;;7.90;3.00;;;;;;;11.80;71.78;100809.48;105595;1280;22537;-76
2022/06/15 03:19:55;;;;;;;6.30;3.30;;;;;;;11.80;71.78;100813.53;105018;1285;26532;-71
2022/06/15 03:22:22;;;;;;;7.00;2.90;;;;;;;11.82;71.82;100813.88;105245;1284;22712;-71
2022/06/15 03:24:52;;;;;;;6.30;3.50;;;;;;;11.87;71.85;100817.89;105302;1284;22597;-72
2022/06/15 03:27:19;;;;;;;7.70;3.10;;;;;;;11.90;71.73;100817.88;105083;1284;25548;-75
2022/06/15 03:29:50;;;;;;;7.90;3.00;;;;;;;11.96;71.72;100817.83;105041;1282;22592;-73
2022/06/15 03:32:20;;;;;;;7.90;3.60;;;;;;;12.01;71.56;100819.02;105383;1281;25289;-73
2022/06/15 03:34:52;;;;;;;8.10;3.00;;;;;;;12.05;71.52;100817.75;105064;1282;25252;-73
2022/06/15 03:37:19;;;;;;;7.60;3.00;;;;;;;12.02;71.30;100816.18;105267;1276;24385;-71
2022/06/15 03:39:46;;;;;;;6.70;2.50;;;;;;;12.03;71.35;100815.65;105680;1275;23300;-73
2022/06/15 03:42:18;;;;;;;5.60;3.10;;;;;;;12.06;71.33;100817.59;105997;1274;24238;-72
2022/06/15 03:44:46;;;;;;;6.60;4.10;;;;;;;12.10;71.37;100815.45;105539;1281;23697;-73
2022/06/15 03:47:17;;;;;;;5.00;3.10;;;;;;;12.14;71.29;100822.48;105402;1281;25392;-73
2022/06/15 03:49:48;;;;;;;7.40;3.20;;;;;;;12.16;71.18;100818.58;105315;1281;25256;-72
2022/06/15 03:52:20;;;;;;;5.00;3.10;;;;;;;12.19;71.16;100816.96;105223;1282;24423;-73
2022/06/15 03:54:47;;;;;;;3.00;2.10;;;;;;;12.18;70.86;100818.02;105589;1281;24302;-72
2022/06/15 03:57:17;;;;;;;6.70;3.20;;;;;;;12.20;70.86;100816.95;105144;1281;22798;-74
2022/06/15 03:59:45;;;;;;;5.60;2.90;;;;;;;12.24;70.80;100817.44;105218;1284;24689;-74
2022/06/15 04:02:30;;;;;;;6.60;3.20;;;;;;;12.28;70.76;100816.17;105216;1280;22535;-74
2022/06/15 04:04:59;;;;;;;6.50;3.20;;;;;;;12.28;70.65;100812.98;105490;1279;22523;-74
2022/06/15 04:10:15;;;;;;;6.10;3.50;;;;;;;12.29;70.59;100811.40;105530;1281;22590;-74
2022/06/15 04:12:46;;;;;;;9.60;3.00;;;;;;;12.29;70.54;100817.04;105259;1281;25262;-77
2022/06/15 04:15:15;;;;;;;7.90;2.90;;;;;;;12.27;70.63;100809.64;105719;1279;25391;-73
2022/06/15 04:17:46;;;;;;;8.70;3.30;;;;;;;12.31;70.62;100813.67;105435;1274;22620;-75
2022/06/15 04:20:36;;;;;;;9.30;3.40;;;;;;;12.34;70.63;100808.16;106004;1274;22551;-75
2022/06/15 04:23:09;;;;;;;6.90;3.20;;;;;;;12.36;70.53;100809.39;106142;1274;25451;-76
2022/06/15 04:25:41;;;;;;;8.80;3.30;;;;;;;12.39;70.55;100807.07;105962;1273;22560;-82
2022/06/15 04:28:11;;;;;;;4.90;2.70;;;;;;;12.38;70.48;100811.84;106041;1274;22690;-81
2022/06/15 04:30:39;;;;;;;7.60;3.00;;;;;;;12.41;70.62;100814.99;106129;1274;24768;-75
2022/06/15 04:33:09;;;;;;;5.60;2.90;;;;;;;12.45;70.38;100812.84;106073;1274;22603;-79
2022/06/15 04:35:37;;;;;;;5.30;2.80;;;;;;;12.50;70.44;100812.42;106002;1274;22684;-79
2022/06/15 04:38:07;;;;;;;4.70;3.30;;;;;;;12.56;70.49;100813.06;106021;1274;24257;-78
2022/06/15 04:40:44;;;;;;;6.90;3.10;;;;;;;12.59;70.29;100811.28;106164;1274;22563;-79
2022/06/15 04:43:13;;;;;;;9.40;3.10;;;;;;;12.60;70.14;100813.02;106532;1274;22540;-72
2022/06/15 04:45:41;;;;;;;4.30;2.80;;;;;;;12.58;70.18;100815.86;106193;1274;22534;-76
2022/06/15 04:48:10;;;;;;;5.10;2.50;;;;;;;12.62;70.21;100813.71;106068;1274;25242;-72
2022/06/15 04:50:38;;;;;;;4.50;2.90;;;;;;;12.68;70.36;100815.77;106221;1274;25239;-71
2022/06/15 04:53:06;;;;;;;7.10;3.30;;;;;;;12.74;70.23;100814.11;106134;1274;22474;-73
2022/06/15 04:55:35;;;;;;;4.80;2.90;;;;;;;12.80;70.25;100815.64;105838;1274;22559;-75
2022/06/15 04:58:03;;;;;;;6.70;2.90;;;;;;;12.85;70.22;100817.88;106240;1274;22547;-76
2022/06/15 05:00:40;;;;;;;5.50;2.80;;;;;;;12.90;70.18;100817.28;105742;1281;25478;-74
2022/06/15 05:03:09;;;;;;;8.10;3.90;;;;;;;12.94;69.88;100813.71;105565;1281;25244;-74
2022/06/15 05:05:38;;;;;;;8.30;2.90;;;;;;;12.97;70.03;100813.48;105314;1281;25931;-76
2022/06/15 05:08:06;;;;;;;9.30;2.80;;;;;;;13.04;70.00;100813.41;105284;1281;25249;-78
2022/06/15 05:10:33;;;;;;;8.20;2.50;;;;;;;13.11;69.77;100810.14;105123;1281;22573;-77
2022/06/15 05:13:01;;;;;;;6.00;2.80;;;;;;;13.14;69.65;100812.58;105399;1281;25398;-73
2022/06/15 05:15:29;;;;;;;8.50;3.00;;;;;;;13.19;69.78;100817.10;105516;1281;25429;-76
2022/06/15 05:18:04;;;;;;;5.60;2.80;;;;;;;13.22;69.63;100819.17;105556;1274;22482;-75
2022/06/15 05:20:37;;;;;;;5.30;3.00;;;;;;;13.21;69.69;100822.55;106041;1274;22550;-77
2022/06/15 05:23:05;;;;;;;5.60;3.00;;;;;;;13.25;69.43;100819.86;106310;1274;22994;-78
2022/06/15 05:25:59;;;;;;;4.60;2.60;;;;;;;13.29;69.43;100820.15;105999;1274;23192;-76
2022/06/15 05:28:26;;;;;;;6.80;3.20;;;;;;;13.36;69.57;100823.77;106025;1276;24398;-76
2022/06/15 05:31:14;;;;;;;5.00;2.60;;;;;;;13.44;69.52;100824.39;106348;1273;24218;-79
2022/06/15 05:33:43;;;;;;;3.40;2.20;;;;;;;13.47;68.92;100824.88;106201;1274;22487;-75
2022/06/15 05:36:16;;;;;;;6.60;2.40;;;;;;;13.47;68.70;100822.03;106051;1274;25235;-84
2022/06/15 05:38:45;;;;;;;5.20;2.40;;;;;;;13.50;68.76;100824.48;108261;1274;25293;-87
2022/06/15 05:41:13;;;;;;;5.70;2.80;;;;;;;13.54;68.77;100827.09;108014;1281;22677;-87
2022/06/15 05:43:55;;;;;;;4.00;2.30;;;;;;;13.59;68.87;100824.02;108175;1281;22553;-87
2022/06/15 05:46:30;;;;;;;3.30;2.10;;;;;;;13.67;68.82;100826.55;108440;1281;23406;-87
2022/06/15 05:49:06;;;;;;;5.20;2.20;;;;;;;13.76;68.41;100830.84;107855;1279;22583;-87
2022/06/15 05:51:34;;;;;;;7.40;1.90;;;;;;;13.81;68.03;100828.83;108270;1279;22564;-87
2022/06/15 05:54:01;;;;;;;5.00;2.10;;;;;;;13.85;67.83;100828.05;107911;1279;22602;-87
2022/06/15 05:56:29;;;;;;;6.40;2.40;;;;;;;13.90;67.82;100823.73;107212;1279;22711;-87
2022/06/15 05:58:58;;;;;;;5.90;2.00;;;;;;;13.97;67.58;100824.85;107309;1273;22990;-89
2022/06/15 06:01:27;;;;;;;7.30;2.20;;;;;;;14.05;67.53;100823.48;108581;1274;22695;-87
2022/06/15 06:03:59;;;;;;;8.60;2.80;;;;;;;14.10;67.37;100825.35;108661;1273;22523;-87
2022/06/15 06:06:28;;;;;;;4.70;2.70;;;;;;;14.19;67.29;100830.34;105881;1282;26637;-85
